createdAt,value
2016-04-12T09:19:26.486Z,21.22
2016-04-12T09:42:01.970Z,12.27
2016-04-12T09:43:01.895Z,12.29
2016-04-12T09:44:01.866Z,12.42
2016-04-12T09:45:01.853Z,12.37
2016-04-12T09:46:01.684Z,12.25
2016-04-12T09:47:01.812Z,12.25
2016-04-12T09:48:01.799Z,12.29
2016-04-12T09:49:01.770Z,12.4
2016-04-12T09:50:01.773Z,12.39
2016-04-12T09:51:01.588Z,12.39
2016-04-12T09:52:01.731Z,12.29
2016-04-12T09:53:01.702Z,12.46
2016-04-12T09:54:01.706Z,12.47
2016-04-12T09:55:01.677Z,13.19
2016-04-12T09:56:01.664Z,13.19
2016-04-12T09:57:01.651Z,13.67
2016-04-12T09:58:01.623Z,13.16
2016-04-12T09:59:01.610Z,13.52
2016-04-12T10:00:01.613Z,12.91
2016-04-12T10:01:01.600Z,12.65
2016-04-12T10:02:01.571Z,12.6
2016-04-12T10:03:01.557Z,12.58
2016-04-12T10:04:01.545Z,13.33
2016-04-12T10:05:01.501Z,13.6
2016-04-12T10:06:01.519Z,13.68
2016-04-12T10:07:01.538Z,13.85
2016-04-12T10:08:01.478Z,14.51
2016-04-12T10:09:01.449Z,14.59
2016-04-12T10:10:01.483Z,14.68
2016-04-12T10:11:01.454Z,14.82
2016-04-12T10:12:01.426Z,13.74
2016-04-12T10:13:01.397Z,13.78
2016-04-12T10:14:01.431Z,13.97
2016-04-12T10:15:01.386Z,14.05
2016-04-12T10:16:01.343Z,14.18
2016-04-12T10:17:01.345Z,14.22
2016-04-12T10:18:01.317Z,14.51
2016-04-12T10:19:01.319Z,14.72
2016-04-12T10:20:01.291Z,14.79
2016-04-12T10:21:01.278Z,15.02
2016-04-12T10:22:01.266Z,15.25
2016-04-12T10:23:01.253Z,15.36
2016-04-12T10:24:01.239Z,15.7
2016-04-12T10:25:01.257Z,15.9
2016-04-12T10:26:01.213Z,15.57
2016-04-12T10:27:01.201Z,15.54
2016-04-12T10:28:01.188Z,15.57
2016-04-12T10:29:01.174Z,15.75
2016-04-12T10:30:01.177Z,15.86
2016-04-12T10:31:01.149Z,15.83
2016-04-12T10:32:01.182Z,16.01
2016-04-12T10:33:01.123Z,16.1
2016-04-12T10:34:01.141Z,16.08
2016-04-12T10:35:01.159Z,16.15
2016-04-12T10:36:01.241Z,16.16
2016-04-12T10:37:01.103Z,16.38
2016-04-12T10:38:01.121Z,16.42
2016-04-12T10:39:01.076Z,16.49
2016-04-12T10:40:01.095Z,16.42
2016-04-12T10:41:01.019Z,16.41
2016-04-12T10:42:01.006Z,16.54
2016-04-12T10:43:01.026Z,16.41
2016-04-12T10:44:00.997Z,16.56
2016-04-12T10:45:00.968Z,16.89
2016-04-12T10:46:00.970Z,17.45
2016-04-12T10:47:00.942Z,17.45
2016-04-12T10:48:00.945Z,17.48
2016-04-12T10:49:00.870Z,16.83
2016-04-12T10:50:00.919Z,16.56
2016-04-12T10:51:00.905Z,16.35
2016-04-12T10:52:00.909Z,16.16
2016-04-12T10:53:00.739Z,16.04
2016-04-12T10:54:00.867Z,15.8
2016-04-12T10:55:00.714Z,15.67
2016-04-12T10:56:00.872Z,15.54
2016-04-12T10:57:00.860Z,15.55
2016-04-12T10:58:00.830Z,15.44
2016-04-12T10:59:00.818Z,15.17
2016-04-12T11:00:00.821Z,15.21
2016-04-12T11:01:00.948Z,15.11
2016-04-12T11:02:00.795Z,15.11
2016-04-12T11:03:00.766Z,15.07
2016-04-12T11:04:00.753Z,15.03
2016-04-12T11:05:00.724Z,14.91
2016-04-12T11:06:00.727Z,14.82
2016-04-12T11:07:00.729Z,14.73
2016-04-12T11:08:00.701Z,14.63
2016-04-12T11:09:00.674Z,14.81
2016-04-12T11:10:00.676Z,14.66
2016-04-12T11:11:00.647Z,14.65
2016-04-12T11:12:00.634Z,14.62
2016-04-12T11:13:00.620Z,14.63
2016-04-12T11:14:00.609Z,14.58
2016-04-12T11:15:00.595Z,14.41
2016-04-12T11:16:00.583Z,14.48
2016-04-12T11:17:00.569Z,14.47
2016-04-12T11:18:00.588Z,14.41
2016-04-12T11:19:00.653Z,14.2
2016-04-12T11:20:00.546Z,14.12
2016-04-12T11:21:00.517Z,14.32
2016-04-12T11:22:00.520Z,14.47
2016-04-12T11:23:00.492Z,14.48
2016-04-12T11:24:00.480Z,14.48
2016-04-12T11:25:00.466Z,14.33
2016-04-12T11:26:00.453Z,14.12
2016-04-12T11:27:00.424Z,14.47
2016-04-12T11:28:00.427Z,15.35
2016-04-12T11:29:00.414Z,15.92
2016-04-12T11:30:00.386Z,16.64
2016-04-12T11:31:00.374Z,16.65
2016-04-12T11:32:00.375Z,17.06
2016-04-12T11:33:00.347Z,18.59
2016-04-12T11:34:00.397Z,19.86
2016-04-12T11:35:00.352Z,19.76
2016-04-12T11:36:00.308Z,20.13
2016-04-12T11:37:00.310Z,20.85
2016-04-12T11:38:00.313Z,22.11
2016-04-12T11:39:00.284Z,23.27
2016-04-12T11:40:00.318Z,23.39
2016-04-12T11:41:00.665Z,23.08
2016-04-12T11:42:00.277Z,23.99
2016-04-12T11:43:00.280Z,24.66
2016-04-12T11:44:00.268Z,23.44
2016-04-12T11:45:00.254Z,22.66
2016-04-12T11:46:00.256Z,22.72
2016-04-12T11:47:00.259Z,22.08
2016-04-12T11:48:00.247Z,21.55
2016-04-12T11:49:00.156Z,21.93
2016-04-12T11:50:00.236Z,23.12
2016-04-12T11:51:01.677Z,24.81
2016-04-12T11:52:00.257Z,26.47
2016-04-12T11:53:00.228Z,26.4
2016-04-12T11:54:00.231Z,24.65
2016-04-12T11:55:00.234Z,23.96
2016-04-12T11:56:00.236Z,24.1
2016-04-12T11:57:00.239Z,23.58
2016-04-12T11:58:00.242Z,23.78
2016-04-12T11:59:00.245Z,24.32
2016-04-12T12:00:00.280Z,24.93
2016-04-12T12:01:00.329Z,24.65
2016-04-12T12:02:00.238Z,24.26
2016-04-12T12:03:00.240Z,24.66
2016-04-12T12:04:00.227Z,25.18
2016-04-12T12:05:00.230Z,24.57
2016-04-12T12:06:00.232Z,25.48
2016-04-12T12:07:00.251Z,25.29
2016-04-12T12:08:00.238Z,26.09
2016-04-12T12:09:00.240Z,26.37
2016-04-12T12:10:00.243Z,23.63
2016-04-12T12:11:00.245Z,22.91
2016-04-12T12:12:00.248Z,23.62
2016-04-12T12:13:00.112Z,24.43
2016-04-12T12:14:00.254Z,24.53
2016-04-12T12:15:00.241Z,24.33
2016-04-12T12:16:00.259Z,24.28
2016-04-12T12:17:00.247Z,24.42
2016-04-12T12:18:00.250Z,24.06
2016-04-12T12:19:00.331Z,24.5
2016-04-12T12:20:00.255Z,23.86
2016-04-12T12:21:00.258Z,23.39
2016-04-12T12:22:00.245Z,24.24
2016-04-12T12:23:00.106Z,24.21
2016-04-12T12:24:00.250Z,25.26
2016-04-12T12:25:00.269Z,26.37
2016-04-12T12:26:00.255Z,26.59
2016-04-12T12:27:00.258Z,25.87
2016-04-12T12:28:00.261Z,24.54
2016-04-12T12:29:00.263Z,24.18
2016-04-12T12:30:00.266Z,24.01
2016-04-12T12:31:00.269Z,23.71
2016-04-12T12:32:00.302Z,23.37
2016-04-12T12:33:00.274Z,24.53
2016-04-12T12:34:00.308Z,25.16
2016-04-12T12:35:00.279Z,26.02
2016-04-12T12:36:00.282Z,27.08
2016-04-12T12:37:00.301Z,26.75
2016-04-12T12:38:00.272Z,27.18
2016-04-12T12:39:00.290Z,27.17
2016-04-12T12:40:00.293Z,26.06
2016-04-12T12:41:00.295Z,26.74
2016-04-12T12:42:00.282Z,28.27
2016-04-12T12:43:00.317Z,28.3
2016-04-12T12:44:00.288Z,27.95
2016-04-12T12:45:00.291Z,28.17
2016-04-12T12:46:00.293Z,25.84
2016-04-12T12:47:00.483Z,25.29
2016-04-12T12:48:00.298Z,26.78
2016-04-12T12:49:00.161Z,26.75
2016-04-12T12:50:00.303Z,26.41
2016-04-12T12:51:00.307Z,25.93
2016-04-12T12:52:00.309Z,25.75
2016-04-12T12:53:00.296Z,25.78
2016-04-12T12:54:00.346Z,26.1
2016-04-12T12:55:00.317Z,26.07
2016-04-12T12:56:00.320Z,25.51
2016-04-12T12:57:00.307Z,25.04
2016-04-12T12:58:00.341Z,24.93
2016-04-12T12:59:00.344Z,25.07
2016-04-12T13:00:00.377Z,25.43
2016-04-12T13:01:00.333Z,25.96
2016-04-12T13:02:00.336Z,24.7
2016-04-12T13:03:00.323Z,24.93
2016-04-12T13:04:00.341Z,25.36
2016-04-12T13:05:00.329Z,25.93
2016-04-12T13:06:00.346Z,26.03
2016-04-12T13:07:00.334Z,26.7
2016-04-12T13:08:00.352Z,26.47
2016-04-12T13:09:00.373Z,25.84
2016-04-12T13:10:03.564Z,25.18
2016-04-12T13:11:06.269Z,25.35
2016-04-12T13:12:05.866Z,25.58
2016-04-12T13:13:05.510Z,25.51
2016-04-12T13:14:05.262Z,24.95
2016-04-12T13:15:00.390Z,25.85
2016-04-12T13:16:00.361Z,26.18
2016-04-12T13:17:00.443Z,27.29
2016-04-12T13:18:00.398Z,28.49
2016-04-12T13:19:00.385Z,26.78
2016-04-12T13:20:00.357Z,26.9
2016-04-12T13:21:00.391Z,26.78
2016-04-12T13:22:00.378Z,27.25
2016-04-12T13:23:00.380Z,25.44
2016-04-12T13:24:00.384Z,24.81
2016-04-12T13:25:00.401Z,25.99
2016-04-12T13:26:00.389Z,24.88
2016-04-12T13:27:00.391Z,25.25
2016-04-12T13:28:00.409Z,25.13
2016-04-12T13:29:00.396Z,25.96
2016-04-12T13:30:00.446Z,25.63
2016-04-12T13:31:00.386Z,25.55
2016-04-12T13:32:00.420Z,24.77
2016-04-12T13:33:00.391Z,24.5
2016-04-12T13:34:00.410Z,23.32
2016-04-12T13:35:00.396Z,24.2
2016-04-12T13:36:00.416Z,24.18
2016-04-12T13:37:00.402Z,25.95
2016-04-12T13:38:00.421Z,23.83
2016-04-12T13:39:00.391Z,25.28
2016-04-12T13:40:00.410Z,24.23
2016-04-12T13:41:00.413Z,24.33
2016-04-12T13:42:00.446Z,24.4
2016-04-12T13:43:01.480Z,24.18
2016-04-12T13:43:59.654Z,24.13
2016-04-12T13:45:00.422Z,24.33
2016-04-12T13:46:00.253Z,25.13
2016-04-12T13:47:07.110Z,25.25
2016-04-12T13:48:00.424Z,25.85
2016-04-12T13:49:00.444Z,25.21
2016-04-12T13:50:00.430Z,24.42
2016-04-12T13:51:00.418Z,24.6
2016-04-12T13:52:00.421Z,25.8
2016-04-12T13:53:00.423Z,26.47
2016-04-12T13:54:00.472Z,26.77
2016-04-12T13:55:00.444Z,25.41
2016-04-12T13:56:00.446Z,24.05
2016-04-12T13:57:00.434Z,24.13
2016-04-12T13:58:00.451Z,25.04
2016-04-12T13:59:00.439Z,23.81
2016-04-12T14:00:00.426Z,25.73
2016-04-12T14:01:00.429Z,25.54
2016-04-12T14:02:00.431Z,27.17
2016-04-12T14:03:00.465Z,25.29
2016-04-12T14:04:00.421Z,24.91
2016-04-12T14:05:00.424Z,24.5
2016-04-12T14:06:00.427Z,22.48
2016-04-12T14:07:00.428Z,21.82
2016-04-12T14:08:00.431Z,22.87
2016-04-12T14:09:00.434Z,23.66
2016-04-12T14:10:00.437Z,23.4
2016-04-12T14:11:00.440Z,23.66
2016-04-12T14:12:00.490Z,24.96
2016-04-12T14:13:00.461Z,24.84
2016-04-12T14:14:00.417Z,24.21
2016-04-12T14:15:00.435Z,24.01
2016-04-12T14:16:00.438Z,24.66
2016-04-12T14:17:00.424Z,23.71
2016-04-12T14:18:00.443Z,23.17
2016-04-12T14:19:00.414Z,24.3
2016-04-12T14:20:00.432Z,24.6
2016-04-12T14:21:00.420Z,25.17
2016-04-12T14:22:00.469Z,25.77
2016-04-12T14:23:00.457Z,24.98
2016-04-12T14:24:00.444Z,23.84
2016-04-12T14:25:00.430Z,24.32
2016-04-12T14:26:00.433Z,24.77
2016-04-12T14:27:00.499Z,24.96
2016-04-12T14:28:00.438Z,24.84
2016-04-12T14:29:00.427Z,23.18
2016-04-12T14:30:00.429Z,21.7
2016-04-12T14:31:00.447Z,22.23
2016-04-12T14:32:00.419Z,22.25
2016-04-12T14:33:00.452Z,22.23
2016-04-12T14:34:00.424Z,21.99
2016-04-12T14:35:00.426Z,21.21
2016-04-12T14:36:00.476Z,21.36
2016-04-12T14:37:00.416Z,22.44
2016-04-12T14:38:00.403Z,23.48
2016-04-12T14:39:00.422Z,24.13
2016-04-12T14:40:00.425Z,23.58
2016-04-12T14:41:00.428Z,23.03
2016-04-12T14:42:00.414Z,22.07
2016-04-12T14:43:00.417Z,23.02
2016-04-12T14:44:00.403Z,22.8
2016-04-12T14:45:00.406Z,22.57
2016-04-12T14:46:00.409Z,22.65
2016-04-12T14:47:00.396Z,22.53
2016-04-12T14:48:00.414Z,22.54
2016-04-12T14:49:00.386Z,23.54
2016-04-12T14:50:00.404Z,23.4
2016-04-12T14:51:00.391Z,23.86
2016-04-12T14:52:00.410Z,22.5
2016-04-12T14:53:00.413Z,22.59
2016-04-12T14:54:00.618Z,22.96
2016-04-12T14:55:02.246Z,22.68
2016-04-12T14:56:00.373Z,21.75
2016-04-12T14:57:00.376Z,22.69
2016-04-12T14:58:00.363Z,22.87
2016-04-12T14:59:00.366Z,21.35
2016-04-12T15:00:00.369Z,21.51
2016-04-12T15:01:00.372Z,22.18
2016-04-12T15:02:00.359Z,22.84
2016-04-12T15:03:00.362Z,21.88
2016-04-12T15:04:00.364Z,21.72
2016-04-12T15:05:00.367Z,21.25
2016-04-12T15:06:00.338Z,21.5
2016-04-12T15:07:00.340Z,21.89
2016-04-12T15:08:00.328Z,22.8
2016-04-12T15:09:00.345Z,22.9
2016-04-12T15:10:00.317Z,23.99
2016-04-12T15:11:00.336Z,24.3
2016-04-12T15:12:00.323Z,22.5
2016-04-12T15:13:00.342Z,22.48
2016-04-12T15:14:00.328Z,21.52
2016-04-12T15:15:00.315Z,21.67
2016-04-12T15:16:00.333Z,21.58
2016-04-12T15:17:00.305Z,21.58
2016-04-12T15:18:00.308Z,21.98
2016-04-12T15:19:00.310Z,22.75
2016-04-12T15:20:00.297Z,23.27
2016-04-12T15:21:00.299Z,22.38
2016-04-12T15:22:00.287Z,22.17
2016-04-12T15:23:00.352Z,21.43
2016-04-12T15:24:00.293Z,22.23
2016-04-12T15:25:00.280Z,21.93
2016-04-12T15:26:00.282Z,21.98
2016-04-12T15:27:00.113Z,21.43
2016-04-12T15:28:00.271Z,21.69
2016-04-12T15:29:00.274Z,21.58
2016-04-12T15:30:00.262Z,21.66
2016-04-12T15:31:00.265Z,21.82
2016-04-12T15:32:00.268Z,22.75
2016-04-12T15:33:00.255Z,23.48
2016-04-12T15:34:00.241Z,22.94
2016-04-12T15:35:00.244Z,22.91
2016-04-12T15:36:00.246Z,21.24
2016-04-12T15:37:00.234Z,20.09
2016-04-12T15:38:00.268Z,19.7
2016-04-12T15:39:00.270Z,19.21
2016-04-12T15:40:00.242Z,19.26
2016-04-12T15:41:00.228Z,19.4
2016-04-12T15:42:00.262Z,19.51
2016-04-12T15:43:00.219Z,18.98
2016-04-12T15:44:00.206Z,19.16
2016-04-12T15:45:00.193Z,18.63
2016-04-12T15:46:00.195Z,18.28
2016-04-12T15:47:00.214Z,18.13
2016-04-12T15:48:00.185Z,18.19
2016-04-12T15:49:00.188Z,18.1
2016-04-12T15:50:00.191Z,18.16
2016-04-12T15:51:00.161Z,18.16
2016-04-12T15:52:00.133Z,18.25
2016-04-12T15:53:00.135Z,18.22
2016-04-12T15:54:00.264Z,18.33
2016-04-12T15:55:00.141Z,18.23
2016-04-12T15:56:00.144Z,18.25
2016-04-12T15:57:00.147Z,17.89
2016-04-12T15:58:00.103Z,17.86
2016-04-12T15:59:00.137Z,17.86
2016-04-12T16:00:00.108Z,17.7
2016-04-12T16:01:00.079Z,17.34
2016-04-12T16:02:00.051Z,17.49
2016-04-12T16:03:00.069Z,17.29
2016-04-12T16:03:59.885Z,17.33
2016-04-12T16:05:00.529Z,17.48
2016-04-12T16:06:00.031Z,17.51
2016-04-12T16:07:00.018Z,17.52
2016-04-12T16:07:59.989Z,17.63
2016-04-12T16:09:02.976Z,17.46
2016-04-12T16:10:02.479Z,17.16
2016-04-12T16:11:00.012Z,17.33
2016-04-12T16:11:59.953Z,17.41
2016-04-12T16:12:59.970Z,17.44
2016-04-12T16:13:59.927Z,17.57
2016-04-12T16:15:00.023Z,17.59
2016-04-12T16:15:59.901Z,17.7
2016-04-12T16:16:59.936Z,18.05
2016-04-12T16:17:59.906Z,17.57
2016-04-12T16:18:59.878Z,17.34
2016-04-12T16:19:59.974Z,17.39
2016-04-12T16:20:59.867Z,17.48
2016-04-12T16:21:59.869Z,17.59
2016-04-12T16:22:59.857Z,17.6
2016-04-12T16:23:59.844Z,17.64
2016-04-12T16:24:59.815Z,17.63
2016-04-12T16:25:59.803Z,17.59
2016-04-12T16:26:59.805Z,17.51
2016-04-12T16:27:59.777Z,17.51
2016-04-12T16:28:59.764Z,17.46
2016-04-12T16:29:59.767Z,17.22
2016-04-12T16:30:59.754Z,17.24
2016-04-12T16:31:59.726Z,17.42
2016-04-12T16:32:59.712Z,17.57
2016-04-12T16:33:59.715Z,17.24
2016-04-12T16:34:59.984Z,17.12
2016-04-12T16:35:59.690Z,17.15
2016-04-12T16:36:59.661Z,17.24
2016-04-12T16:37:59.646Z,17.48
2016-04-12T16:38:59.682Z,17.76
2016-04-12T16:39:59.635Z,17.41
2016-04-12T16:40:59.734Z,17.16
2016-04-12T16:41:59.892Z,17.14
2016-04-12T16:42:59.595Z,17.12
2016-04-12T16:43:59.692Z,17.14
2016-04-12T16:44:59.885Z,17.34
2016-04-12T16:45:59.666Z,17.14
2016-04-12T16:46:59.559Z,16.93
2016-04-12T16:47:59.531Z,17.06
2016-04-12T16:48:59.362Z,17.19
2016-04-12T16:49:59.854Z,17.12
2016-04-12T16:50:59.572Z,17.16
2016-04-12T16:51:59.616Z,17.34
2016-04-12T16:52:59.675Z,17.29
2016-04-12T16:53:59.640Z,17.19
2016-04-12T16:54:59.658Z,17.16
2016-04-12T16:55:59.659Z,17.12
2016-04-12T16:56:59.677Z,17.11
2016-04-12T16:57:59.772Z,17.26
2016-04-12T16:58:59.680Z,17.05
2016-04-12T16:59:59.658Z,16.89
2016-04-12T17:00:59.666Z,16.89
2016-04-12T17:01:59.642Z,16.72
2016-04-12T17:02:59.713Z,16.76
2016-04-12T17:03:59.721Z,16.66
2016-04-12T17:04:59.835Z,16.66
2016-04-12T17:05:59.636Z,16.53
2016-04-12T17:06:59.641Z,16.35
2016-04-12T17:07:59.693Z,16.39
2016-04-12T17:08:59.666Z,16.51
2016-04-12T17:10:01.282Z,16.54
2016-04-12T17:11:02.082Z,16.64
2016-04-12T17:12:00.819Z,16.79
2016-04-12T17:13:00.339Z,16.75
2016-04-12T17:14:01.889Z,16.9
2016-04-12T17:15:00.297Z,16.83
2016-04-12T17:16:02.488Z,16.66
2016-04-12T17:16:59.488Z,16.79
2016-04-12T17:17:59.474Z,16.6
2016-04-12T17:18:59.477Z,16.47
2016-04-12T17:19:59.433Z,16.42
2016-04-12T17:20:59.435Z,16.41
2016-04-12T17:21:59.438Z,16.47
2016-04-12T17:22:59.410Z,16.53
2016-04-12T17:23:59.397Z,16.43
2016-04-12T17:24:59.385Z,16.39
2016-04-12T17:25:59.387Z,16.43
2016-04-12T17:26:59.374Z,16.08
2016-04-12T17:27:59.361Z,16.09
2016-04-12T17:28:59.332Z,16.04
2016-04-12T17:29:59.335Z,16.15
2016-04-12T17:30:59.306Z,16.09
2016-04-12T17:31:59.309Z,16.12
2016-04-12T17:32:59.296Z,15.98
2016-04-12T17:33:59.284Z,15.91
2016-04-12T17:34:59.286Z,16.04
2016-04-12T17:35:59.257Z,16.12
2016-04-12T17:36:59.276Z,16.08
2016-04-12T17:37:59.217Z,16.08
2016-04-12T17:38:59.203Z,15.94
2016-04-12T17:39:59.190Z,16.13
2016-04-12T17:40:59.192Z,16.15
2016-04-12T17:41:59.164Z,16.12
2016-04-12T17:42:59.151Z,16.02
2016-04-12T17:43:59.153Z,15.9
2016-04-12T17:44:59.141Z,15.68
2016-04-12T17:45:59.113Z,15.47
2016-04-12T17:46:59.115Z,15.15
2016-04-12T17:47:59.086Z,15.37
2016-04-12T17:48:59.088Z,15.28
2016-04-12T17:49:59.061Z,15.11
2016-04-12T17:50:59.048Z,15.09
2016-04-12T17:51:59.050Z,14.41
2016-04-12T17:52:59.038Z,13.7
2016-04-12T17:53:59.134Z,13.54
2016-04-12T17:54:59.058Z,12.98
2016-04-12T17:55:59.015Z,12.73
2016-04-12T17:56:59.017Z,12.86
2016-04-12T17:57:58.957Z,12.9
2016-04-12T17:58:58.959Z,13.18
2016-04-12T17:59:58.946Z,13.01
2016-04-12T18:00:58.935Z,13.22
2016-04-12T18:01:58.906Z,13.18
2016-04-12T18:02:58.892Z,13.19
2016-04-12T18:03:58.864Z,13.18
2016-04-12T18:04:58.851Z,12.93
2016-04-12T18:06:00.120Z,13.12
2016-04-12T18:06:58.826Z,13.25
2016-04-12T18:07:58.812Z,13.37
2016-04-12T18:08:58.799Z,13.18
2016-04-12T18:09:58.786Z,13.2
2016-04-12T18:10:58.758Z,13.31
2016-04-12T18:11:58.744Z,13.56
2016-04-12T18:12:58.731Z,13.7
2016-04-12T18:13:58.719Z,13.77
2016-04-12T18:14:58.706Z,13.78
2016-04-12T18:15:58.694Z,13.75
2016-04-12T18:16:58.664Z,13.89
2016-04-12T18:17:58.683Z,13.99
2016-04-12T18:18:58.638Z,14.1
2016-04-12T18:19:58.625Z,14.28
2016-04-12T18:20:58.597Z,14.45
2016-04-12T18:22:47.071Z,-39.99
